sensor_id;sensor_type;location;lat;lon;timestamp;pressure;altitude;pressure_sealevel;temperature;humidity
18533;BME280;9396;51.510;11.934;2022-09-24T00:01:22;100292.34;;;11.76;98.74
18533;BME280;9396;51.510;11.934;2022-09-24T00:03:51;100292.03;;;11.87;98.12
18533;BME280;9396;51.510;11.934;2022-09-24T00:06:18;100286.53;;;11.97;98.12
18533;BME280;9396;51.510;11.934;2022-09-24T00:08:47;100283.72;;;12.06;97.78
18533;BME280;9396;51.510;11.934;2022-09-24T00:11:14;100283.56;;;12.08;97.80
18533;BME280;9396;51.510;11.934;2022-09-24T00:13:42;100286.72;;;12.11;97.48
18533;BME280;9396;51.510;11.934;2022-09-24T00:16:10;100288.06;;;12.15;97.29
18533;BME280;9396;51.510;11.934;2022-09-24T00:18:38;100293.38;;;12.15;97.10
18533;BME280;9396;51.510;11.934;2022-09-24T00:21:13;100287.38;;;12.13;97.51
18533;BME280;9396;51.510;11.934;2022-09-24T00:23:40;100280.84;;;11.75;96.80
18533;BME280;9396;51.510;11.934;2022-09-24T00:26:10;100276.34;;;11.68;98.49
18533;BME280;9396;51.510;11.934;2022-09-24T00:28:54;100283.03;;;11.80;98.15
18533;BME280;9396;51.510;11.934;2022-09-24T00:31:20;100283.69;;;11.82;97.85
18533;BME280;9396;51.510;11.934;2022-09-24T00:33:47;100284.19;;;11.77;97.82
18533;BME280;9396;51.510;11.934;2022-09-24T00:36:17;100285.38;;;11.83;98.34
18533;BME280;9396;51.510;11.934;2022-09-24T00:38:47;100287.88;;;11.84;97.85
18533;BME280;9396;51.510;11.934;2022-09-24T00:41:17;100288.69;;;11.77;98.44
18533;BME280;9396;51.510;11.934;2022-09-24T00:43:46;100285.53;;;11.81;97.76
18533;BME280;9396;51.510;11.934;2022-09-24T00:46:17;100277.19;;;11.84;98.34
18533;BME280;9396;51.510;11.934;2022-09-24T00:48:46;100280.72;;;11.85;98.29
18533;BME280;9396;51.510;11.934;2022-09-24T00:51:16;100276.19;;;11.85;97.51
18533;BME280;9396;51.510;11.934;2022-09-24T00:53:45;100279.69;;;11.78;97.61
18533;BME280;9396;51.510;11.934;2022-09-24T00:56:13;100275.19;;;11.78;97.79
18533;BME280;9396;51.510;11.934;2022-09-24T00:58:46;100269.53;;;11.73;97.30
18533;BME280;9396;51.510;11.934;2022-09-24T01:01:16;100267.31;;;11.53;97.92
18533;BME280;9396;51.510;11.934;2022-09-24T01:03:44;100273.81;;;11.58;97.94
18533;BME280;9396;51.510;11.934;2022-09-24T01:06:12;100270.63;;;11.55;98.26
18533;BME280;9396;51.510;11.934;2022-09-24T01:08:39;100272.06;;;11.33;99.26
18533;BME280;9396;51.510;11.934;2022-09-24T01:11:12;100266.41;;;11.36;99.01
18533;BME280;9396;51.510;11.934;2022-09-24T01:16:55;100269.97;;;11.61;98.27
18533;BME280;9396;51.510;11.934;2022-09-24T01:19:43;100271.84;;;11.68;98.65
18533;BME280;9396;51.510;11.934;2022-09-24T01:22:25;100264.19;;;11.73;98.12
18533;BME280;9396;51.510;11.934;2022-09-24T01:24:59;100263.38;;;11.73;98.57
18533;BME280;9396;51.510;11.934;2022-09-24T01:27:39;100269.69;;;11.72;98.13
18533;BME280;9396;51.510;11.934;2022-09-24T01:30:12;100258.84;;;11.73;98.22
18533;BME280;9396;51.510;11.934;2022-09-24T01:32:42;100262.34;;;11.82;98.10
18533;BME280;9396;51.510;11.934;2022-09-24T01:35:15;100258.53;;;11.84;98.45
18533;BME280;9396;51.510;11.934;2022-09-24T01:37:46;100257.03;;;11.82;98.22
18533;BME280;9396;51.510;11.934;2022-09-24T01:40:17;100257.03;;;11.82;97.98
18533;BME280;9396;51.510;11.934;2022-09-24T01:42:44;100257.00;;;11.66;98.19
18533;BME280;9396;51.510;11.934;2022-09-24T01:45:13;100247.00;;;11.60;98.23
18533;BME280;9396;51.510;11.934;2022-09-24T01:47:41;100250.69;;;11.67;98.52
18533;BME280;9396;51.510;11.934;2022-09-24T01:50:12;100253.19;;;11.68;98.62
18533;BME280;9396;51.510;11.934;2022-09-24T01:52:44;100258.06;;;11.73;98.27
18533;BME280;9396;51.510;11.934;2022-09-24T01:55:16;100254.53;;;11.72;98.47
18533;BME280;9396;51.510;11.934;2022-09-24T01:57:47;100247.50;;;11.63;98.01
18533;BME280;9396;51.510;11.934;2022-09-24T02:00:17;100247.63;;;11.54;98.45
18533;BME280;9396;51.510;11.934;2022-09-24T02:02:47;100241.50;;;11.53;98.10
18533;BME280;9396;51.510;11.934;2022-09-24T02:05:19;100242.81;;;11.57;97.98
18533;BME280;9396;51.510;11.934;2022-09-24T02:07:54;100252.00;;;11.63;98.02
18533;BME280;9396;51.510;11.934;2022-09-24T02:10:24;100247.00;;;11.60;97.48
18533;BME280;9396;51.510;11.934;2022-09-24T02:12:55;100250.31;;;11.54;97.85
18533;BME280;9396;51.510;11.934;2022-09-24T02:15:27;100246.25;;;11.26;98.21
18533;BME280;9396;51.510;11.934;2022-09-24T02:17:57;100236.59;;;11.33;98.30
18533;BME280;9396;51.510;11.934;2022-09-24T02:20:27;100237.75;;;11.30;98.77
18533;BME280;9396;51.510;11.934;2022-09-24T02:22:56;100232.09;;;11.25;98.92
18533;BME280;9396;51.510;11.934;2022-09-24T02:25:28;100228.63;;;11.25;99.12
18533;BME280;9396;51.510;11.934;2022-09-24T02:27:56;100222.78;;;11.29;99.00
18533;BME280;9396;51.510;11.934;2022-09-24T02:30:24;100231.97;;;11.35;98.87
18533;BME280;9396;51.510;11.934;2022-09-24T02:32:52;100229.63;;;11.40;98.52
18533;BME280;9396;51.510;11.934;2022-09-24T02:35:21;100227.31;;;11.45;97.81
18533;BME280;9396;51.510;11.934;2022-09-24T02:37:47;100232.63;;;11.45;97.67
18533;BME280;9396;51.510;11.934;2022-09-24T02:40:14;100226.63;;;11.43;97.61
18533;BME280;9396;51.510;11.934;2022-09-24T02:42:41;100133.00;;;10.90;97.73
18533;BME280;9396;51.510;11.934;2022-09-24T02:45:09;100218.81;;;11.41;97.04
18533;BME280;9396;51.510;11.934;2022-09-24T02:47:38;100224.81;;;11.43;96.81
18533;BME280;9396;51.510;11.934;2022-09-24T02:50:05;100223.97;;;11.43;96.83
18533;BME280;9396;51.510;11.934;2022-09-24T02:52:32;100219.59;;;11.18;96.42
18533;BME280;9396;51.510;11.934;2022-09-24T02:54:58;100219.22;;;11.05;97.92
18533;BME280;9396;51.510;11.934;2022-09-24T02:57:25;100224.53;;;11.05;98.34
18533;BME280;9396;51.510;11.934;2022-09-24T02:59:52;100221.19;;;10.95;97.86
18533;BME280;9396;51.510;11.934;2022-09-24T03:02:18;100226.81;;;10.58;99.25
18533;BME280;9396;51.510;11.934;2022-09-24T03:04:47;100214.88;;;10.62;99.83
18533;BME280;9396;51.510;11.934;2022-09-24T03:07:14;100218.47;;;10.78;99.35
18533;BME280;9396;51.510;11.934;2022-09-24T03:09:40;100216.34;;;10.90;99.65
18533;BME280;9396;51.510;11.934;2022-09-24T03:12:07;100218.38;;;10.96;99.43
18533;BME280;9396;51.510;11.934;2022-09-24T03:14:33;100213.22;;;11.03;99.44
18533;BME280;9396;51.510;11.934;2022-09-24T03:17:00;100210.56;;;11.11;98.93
18533;BME280;9396;51.510;11.934;2022-09-24T03:19:27;100205.41;;;11.09;98.54
18533;BME280;9396;51.510;11.934;2022-09-24T03:21:55;100205.25;;;11.11;98.50
18533;BME280;9396;51.510;11.934;2022-09-24T03:24:21;100201.09;;;11.16;98.27
18533;BME280;9396;51.510;11.934;2022-09-24T03:26:48;100208.75;;;11.03;98.47
18533;BME280;9396;51.510;11.934;2022-09-24T03:29:15;100208.56;;;11.05;98.46
18533;BME280;9396;51.510;11.934;2022-09-24T03:31:41;100209.88;;;10.93;99.27
18533;BME280;9396;51.510;11.934;2022-09-24T03:34:07;100204.72;;;10.91;99.65
18533;BME280;9396;51.510;11.934;2022-09-24T03:36:33;100208.41;;;10.98;99.44
18533;BME280;9396;51.510;11.934;2022-09-24T03:39:02;100209.25;;;11.07;99.26
18533;BME280;9396;51.510;11.934;2022-09-24T03:41:28;100206.94;;;11.12;99.14
18533;BME280;9396;51.510;11.934;2022-09-24T03:43:55;100205.13;;;11.12;99.18
18533;BME280;9396;51.510;11.934;2022-09-24T03:46:22;100202.59;;;11.11;98.85
18533;BME280;9396;51.510;11.934;2022-09-24T03:48:54;100194.97;;;11.16;98.55
18533;BME280;9396;51.510;11.934;2022-09-24T03:51:20;100196.63;;;11.17;98.01
18533;BME280;9396;51.510;11.934;2022-09-24T03:53:47;100188.16;;;11.21;97.82
18533;BME280;9396;51.510;11.934;2022-09-24T03:56:15;100178.34;;;11.22;97.35
18533;BME280;9396;51.510;11.934;2022-09-24T03:58:42;100174.34;;;11.18;97.53
18533;BME280;9396;51.510;11.934;2022-09-24T04:01:11;100183.47;;;11.15;97.33
18533;BME280;9396;51.510;11.934;2022-09-24T04:03:38;100174.50;;;11.16;97.67
18533;BME280;9396;51.510;11.934;2022-09-24T04:06:06;100176.50;;;11.14;97.86
18533;BME280;9396;51.510;11.934;2022-09-24T04:08:33;100172.00;;;11.15;97.36
18533;BME280;9396;51.510;11.934;2022-09-24T04:10:59;100178.31;;;11.14;97.44
18533;BME280;9396;51.510;11.934;2022-09-24T04:13:27;100170.66;;;11.11;97.29
18533;BME280;9396;51.510;11.934;2022-09-24T04:15:54;100166.00;;;11.05;97.95
18533;BME280;9396;51.510;11.934;2022-09-24T04:18:21;100165.50;;;11.01;98.11
18533;BME280;9396;51.510;11.934;2022-09-24T04:20:47;100164.97;;;10.98;98.06
18533;BME280;9396;51.510;11.934;2022-09-24T04:23:14;100161.13;;;11.00;98.75
18533;BME280;9396;51.510;11.934;2022-09-24T04:25:41;100171.47;;;11.03;98.84
18533;BME280;9396;51.510;11.934;2022-09-24T04:28:08;100172.47;;;11.02;98.84
18533;BME280;9396;51.510;11.934;2022-09-24T04:30:37;100165.50;;;11.01;98.84
18533;BME280;9396;51.510;11.934;2022-09-24T04:33:04;100077.03;;;10.49;98.26
18533;BME280;9396;51.510;11.934;2022-09-24T04:35:33;100168.94;;;10.94;98.67
18533;BME280;9396;51.510;11.934;2022-09-24T04:38:01;100164.81;;;10.91;99.04
18533;BME280;9396;51.510;11.934;2022-09-24T04:40:28;100164.25;;;10.88;99.10
18533;BME280;9396;51.510;11.934;2022-09-24T04:42:55;100165.78;;;10.90;99.10
18533;BME280;9396;51.510;11.934;2022-09-24T04:45:22;100160.28;;;10.92;98.93
18533;BME280;9396;51.510;11.934;2022-09-24T04:47:51;100162.28;;;10.90;98.66
18533;BME280;9396;51.510;11.934;2022-09-24T04:50:21;100165.94;;;10.97;99.13
18533;BME280;9396;51.510;11.934;2022-09-24T04:52:47;100165.66;;;11.00;98.57
18533;BME280;9396;51.510;11.934;2022-09-24T04:55:14;100161.81;;;11.02;97.96
18533;BME280;9396;51.510;11.934;2022-09-24T04:57:41;100157.00;;;10.98;98.17
18533;BME280;9396;51.510;11.934;2022-09-24T05:00:12;100167.81;;;10.96;98.18
18533;BME280;9396;51.510;11.934;2022-09-24T05:02:40;100139.97;;;10.74;98.00
18533;BME280;9396;51.510;11.934;2022-09-24T05:05:09;100167.59;;;10.90;97.53
18533;BME280;9396;51.510;11.934;2022-09-24T05:07:36;100171.94;;;10.91;97.63
18533;BME280;9396;51.510;11.934;2022-09-24T05:10:04;100173.94;;;10.89;97.03
18533;BME280;9396;51.510;11.934;2022-09-24T05:12:31;100183.50;;;10.73;97.61
18533;BME280;9396;51.510;11.934;2022-09-24T05:14:59;100185.66;;;10.70;97.96
18533;BME280;9396;51.510;11.934;2022-09-24T05:17:26;100186.66;;;10.77;98.26
18533;BME280;9396;51.510;11.934;2022-09-24T05:19:53;100184.84;;;10.77;98.05
18533;BME280;9396;51.510;11.934;2022-09-24T05:22:23;100192.38;;;10.82;98.03
18533;BME280;9396;51.510;11.934;2022-09-24T05:24:52;100190.69;;;10.81;98.19
18533;BME280;9396;51.510;11.934;2022-09-24T05:27:19;100199.16;;;10.76;98.68
18533;BME280;9396;51.510;11.934;2022-09-24T05:29:46;100198.16;;;10.77;98.36
18533;BME280;9396;51.510;11.934;2022-09-24T05:32:16;100211.13;;;10.80;98.22
18533;BME280;9396;51.510;11.934;2022-09-24T05:34:43;100204.50;;;10.85;98.24
18533;BME280;9396;51.510;11.934;2022-09-24T05:37:11;100201.38;;;10.89;97.87
18533;BME280;9396;51.510;11.934;2022-09-24T05:39:40;100205.13;;;10.70;98.23
18533;BME280;9396;51.510;11.934;2022-09-24T05:42:08;100200.06;;;10.59;98.72
18533;BME280;9396;51.510;11.934;2022-09-24T05:44:35;100198.94;;;10.70;99.13
18533;BME280;9396;51.510;11.934;2022-09-24T05:47:02;100202.00;;;10.83;99.36
18533;BME280;9396;51.510;11.934;2022-09-24T05:49:29;100213.34;;;10.93;99.51
18533;BME280;9396;51.510;11.934;2022-09-24T05:51:56;100204.41;;;11.02;99.41
18533;BME280;9396;51.510;11.934;2022-09-24T05:54:23;100196.47;;;11.10;99.28
18533;BME280;9396;51.510;11.934;2022-09-24T05:56:51;100205.41;;;11.09;99.30
18533;BME280;9396;51.510;11.934;2022-09-24T05:59:18;100200.31;;;11.16;99.75
18533;BME280;9396;51.510;11.934;2022-09-24T06:01:45;100196.00;;;11.23;99.71
18533;BME280;9396;51.510;11.934;2022-09-24T06:04:13;100194.66;;;11.27;99.51
18533;BME280;9396;51.510;11.934;2022-09-24T06:06:40;100199.50;;;11.39;99.46
18533;BME280;9396;51.510;11.934;2022-09-24T06:09:07;100186.03;;;11.49;99.14
18533;BME280;9396;51.510;11.934;2022-09-24T06:11:34;100189.22;;;11.60;98.65
18533;BME280;9396;51.510;11.934;2022-09-24T06:14:02;100189.25;;;11.68;98.46
18533;BME280;9396;51.510;11.934;2022-09-24T06:16:31;100183.59;;;11.71;97.97
18533;BME280;9396;51.510;11.934;2022-09-24T06:18:58;100188.09;;;11.79;98.13
18533;BME280;9396;51.510;11.934;2022-09-24T06:21:24;100187.25;;;11.78;97.63
18533;BME280;9396;51.510;11.934;2022-09-24T06:23:51;100183.41;;;11.89;97.86
18533;BME280;9396;51.510;11.934;2022-09-24T06:26:18;100184.44;;;11.96;97.71
18533;BME280;9396;51.510;11.934;2022-09-24T06:28:44;100186.09;;;11.97;97.86
18533;BME280;9396;51.510;11.934;2022-09-24T06:31:12;100196.59;;;12.07;97.58
18533;BME280;9396;51.510;11.934;2022-09-24T06:33:39;100182.38;;;12.14;97.40
18533;BME280;9396;51.510;11.934;2022-09-24T06:36:07;100181.88;;;12.19;97.41
18533;BME280;9396;51.510;11.934;2022-09-24T06:38:34;100191.41;;;12.13;97.18
18533;BME280;9396;51.510;11.934;2022-09-24T06:41:03;100184.56;;;12.19;96.33
18533;BME280;9396;51.510;11.934;2022-09-24T06:43:31;100183.72;;;12.26;96.86
18533;BME280;9396;51.510;11.934;2022-09-24T06:45:59;100182.13;;;12.48;96.46
18533;BME280;9396;51.510;11.934;2022-09-24T06:48:27;100180.50;;;12.85;96.46
18533;BME280;9396;51.510;11.934;2022-09-24T06:50:55;100180.41;;;13.40;95.84
18533;BME280;9396;51.510;11.934;2022-09-24T06:53:22;100177.31;;;14.11;91.82
18533;BME280;9396;51.510;11.934;2022-09-24T06:55:49;100184.56;;;14.54;88.44
18533;BME280;9396;51.510;11.934;2022-09-24T06:58:17;100176.66;;;14.75;87.53
18533;BME280;9396;51.510;11.934;2022-09-24T07:00:50;100184.13;;;14.65;86.28
18533;BME280;9396;51.510;11.934;2022-09-24T07:03:18;100107.50;;;14.06;86.44
18533;BME280;9396;51.510;11.934;2022-09-24T07:05:47;100153.34;;;14.18;86.68
18533;BME280;9396;51.510;11.934;2022-09-24T07:08:14;100186.69;;;14.30;86.87
18533;BME280;9396;51.510;11.934;2022-09-24T07:10:42;100187.00;;;14.12;87.32
18533;BME280;9396;51.510;11.934;2022-09-24T07:13:09;100186.16;;;13.97;88.47
18533;BME280;9396;51.510;11.934;2022-09-24T07:15:36;100184.75;;;13.86;88.29
18533;BME280;9396;51.510;11.934;2022-09-24T07:18:03;100186.63;;;14.01;87.69
18533;BME280;9396;51.510;11.934;2022-09-24T07:20:29;100192.53;;;14.11;87.44
18533;BME280;9396;51.510;11.934;2022-09-24T07:22:59;100181.66;;;14.12;87.78
18533;BME280;9396;51.510;11.934;2022-09-24T07:25:25;100188.97;;;13.95;87.76
18533;BME280;9396;51.510;11.934;2022-09-24T07:27:52;100186.66;;;13.92;87.77
18533;BME280;9396;51.510;11.934;2022-09-24T07:30:18;100184.84;;;13.93;87.86
18533;BME280;9396;51.510;11.934;2022-09-24T07:32:45;100182.69;;;13.88;88.52
18533;BME280;9396;51.510;11.934;2022-09-24T07:35:15;100192.44;;;13.81;88.55
18533;BME280;9396;51.510;11.934;2022-09-24T07:37:42;100195.56;;;13.70;88.03
18533;BME280;9396;51.510;11.934;2022-09-24T07:40:10;100196.16;;;13.58;88.19
18533;BME280;9396;51.510;11.934;2022-09-24T07:42:37;100185.47;;;13.58;88.15
18533;BME280;9396;51.510;11.934;2022-09-24T07:45:11;100177.00;;;13.69;88.25
18533;BME280;9396;51.510;11.934;2022-09-24T07:47:37;100182.59;;;13.82;88.55
18533;BME280;9396;51.510;11.934;2022-09-24T07:50:05;100185.22;;;13.90;88.52
18533;BME280;9396;51.510;11.934;2022-09-24T07:52:32;100189.63;;;13.83;88.36
18533;BME280;9396;51.510;11.934;2022-09-24T07:54:58;100194.22;;;13.89;87.89
18533;BME280;9396;51.510;11.934;2022-09-24T07:57:26;100185.03;;;13.91;88.92
18533;BME280;9396;51.510;11.934;2022-09-24T07:59:53;100192.56;;;13.88;88.85
18533;BME280;9396;51.510;11.934;2022-09-24T08:02:19;100187.22;;;13.88;87.98
18533;BME280;9396;51.510;11.934;2022-09-24T08:04:46;100194.22;;;13.89;87.27
18533;BME280;9396;51.510;11.934;2022-09-24T08:07:13;100194.97;;;13.97;87.43
18533;BME280;9396;51.510;11.934;2022-09-24T08:09:40;100197.13;;;14.02;88.20
18533;BME280;9396;51.510;11.934;2022-09-24T08:12:07;100176.25;;;13.97;87.58
18533;BME280;9396;51.510;11.934;2022-09-24T08:14:36;100203.41;;;14.09;88.07
18533;BME280;9396;51.510;11.934;2022-09-24T08:17:03;100193.69;;;13.93;87.44
18533;BME280;9396;51.510;11.934;2022-09-24T08:19:29;100195.66;;;13.77;86.73
18533;BME280;9396;51.510;11.934;2022-09-24T08:21:57;100197.50;;;13.54;88.18
18533;BME280;9396;51.510;11.934;2022-09-24T08:24:24;100198.75;;;13.66;88.82
18533;BME280;9396;51.510;11.934;2022-09-24T08:26:50;100198.75;;;13.66;88.71
18533;BME280;9396;51.510;11.934;2022-09-24T08:29:17;100199.69;;;13.73;88.29
18533;BME280;9396;51.510;11.934;2022-09-24T08:31:45;100193.00;;;13.77;89.42
18533;BME280;9396;51.510;11.934;2022-09-24T08:34:12;100204.16;;;13.80;89.07
18533;BME280;9396;51.510;11.934;2022-09-24T08:36:39;100198.91;;;13.87;88.77
18533;BME280;9396;51.510;11.934;2022-09-24T08:39:06;100205.16;;;14.02;88.75
18533;BME280;9396;51.510;11.934;2022-09-24T08:41:47;100201.13;;;14.06;89.88
18533;BME280;9396;51.510;11.934;2022-09-24T08:44:23;100201.72;;;14.08;89.30
18533;BME280;9396;51.510;11.934;2022-09-24T08:47:17;100206.81;;;14.03;88.45
18533;BME280;9396;51.510;11.934;2022-09-24T08:49:53;100206.47;;;14.06;87.89
18533;BME280;9396;51.510;11.934;2022-09-24T08:52:30;100216.66;;;14.25;88.69
18533;BME280;9396;51.510;11.934;2022-09-24T08:55:03;100212.72;;;14.36;88.42
18533;BME280;9396;51.510;11.934;2022-09-24T08:57:33;100219.91;;;14.35;87.55
18533;BME280;9396;51.510;11.934;2022-09-24T09:00:03;100214.94;;;14.32;88.44
18533;BME280;9396;51.510;11.934;2022-09-24T09:02:40;100212.34;;;14.39;87.74
18533;BME280;9396;51.510;11.934;2022-09-24T09:05:15;100207.56;;;14.63;87.26
18533;BME280;9396;51.510;11.934;2022-09-24T09:07:55;100202.84;;;14.80;86.58
18533;BME280;9396;51.510;11.934;2022-09-24T09:10:26;100205.06;;;15.06;88.94
18533;BME280;9396;51.510;11.934;2022-09-24T09:12:58;100203.38;;;15.04;84.77
18533;BME280;9396;51.510;11.934;2022-09-24T09:15:29;100211.41;;;15.04;84.71
18533;BME280;9396;51.510;11.934;2022-09-24T09:18:01;100209.16;;;15.23;85.28
18533;BME280;9396;51.510;11.934;2022-09-24T09:20:33;100208.16;;;15.24;83.37
18533;BME280;9396;51.510;11.934;2022-09-24T09:23:05;100204.63;;;15.38;84.78
18533;BME280;9396;51.510;11.934;2022-09-24T09:25:40;100214.41;;;15.45;85.42
18533;BME280;9396;51.510;11.934;2022-09-24T09:28:11;100206.00;;;15.34;83.80
18533;BME280;9396;51.510;11.934;2022-09-24T09:31:01;100204.97;;;15.35;83.62
18533;BME280;9396;51.510;11.934;2022-09-24T09:33:50;100201.19;;;15.44;83.31
18533;BME280;9396;51.510;11.934;2022-09-24T09:36:34;100202.28;;;15.49;82.53
18533;BME280;9396;51.510;11.934;2022-09-24T09:39:20;100196.09;;;15.49;82.48
18533;BME280;9396;51.510;11.934;2022-09-24T09:41:52;100201.28;;;15.71;86.40
18533;BME280;9396;51.510;11.934;2022-09-24T09:44:23;100187.28;;;15.76;86.20
18533;BME280;9396;51.510;11.934;2022-09-24T09:46:52;100192.69;;;15.82;86.28
18533;BME280;9396;51.510;11.934;2022-09-24T09:49:26;100197.09;;;15.90;83.19
18533;BME280;9396;51.510;11.934;2022-09-24T09:52:00;100194.94;;;16.00;81.67
18533;BME280;9396;51.510;11.934;2022-09-24T09:54:36;100198.16;;;16.17;82.91
18533;BME280;9396;51.510;11.934;2022-09-24T09:57:04;100191.53;;;16.13;80.78
18533;BME280;9396;51.510;11.934;2022-09-24T09:59:33;100187.91;;;15.99;79.96
18533;BME280;9396;51.510;11.934;2022-09-24T10:02:00;100186.09;;;16.06;80.54
18533;BME280;9396;51.510;11.934;2022-09-24T10:04:35;100188.50;;;16.22;82.44
18533;BME280;9396;51.510;11.934;2022-09-24T10:07:08;100185.28;;;16.33;81.06
18533;BME280;9396;51.510;11.934;2022-09-24T10:09:35;100189.06;;;16.45;81.15
18533;BME280;9396;51.510;11.934;2022-09-24T10:12:14;100185.44;;;16.53;78.21
18533;BME280;9396;51.510;11.934;2022-09-24T10:14:42;100181.38;;;16.63;79.03
18533;BME280;9396;51.510;11.934;2022-09-24T10:17:12;100179.78;;;16.75;79.44
18533;BME280;9396;51.510;11.934;2022-09-24T10:19:41;100178.78;;;16.83;79.41
18533;BME280;9396;51.510;11.934;2022-09-24T10:22:17;100177.94;;;16.82;77.39
18533;BME280;9396;51.510;11.934;2022-09-24T10:24:46;100174.47;;;16.88;77.87
18533;BME280;9396;51.510;11.934;2022-09-24T10:27:19;100176.97;;;16.96;78.75
18533;BME280;9396;51.510;11.934;2022-09-24T10:29:52;100178.88;;;16.96;76.30
18533;BME280;9396;51.510;11.934;2022-09-24T10:32:38;100176.53;;;16.86;75.97
18533;BME280;9396;51.510;11.934;2022-09-24T10:35:20;100175.34;;;16.95;77.35
18533;BME280;9396;51.510;11.934;2022-09-24T10:37:50;100171.59;;;16.96;76.16
18533;BME280;9396;51.510;11.934;2022-09-24T10:40:20;100174.78;;;17.06;76.76
18533;BME280;9396;51.510;11.934;2022-09-24T10:43:00;100164.88;;;17.13;76.52
18533;BME280;9396;51.510;11.934;2022-09-24T10:45:42;100177.25;;;17.08;74.22
18533;BME280;9396;51.510;11.934;2022-09-24T10:48:15;100167.56;;;17.13;75.56
18533;BME280;9396;51.510;11.934;2022-09-24T10:50:56;100169.84;;;17.17;77.91
18533;BME280;9396;51.510;11.934;2022-09-24T10:53:35;100174.22;;;17.24;76.32
18533;BME280;9396;51.510;11.934;2022-09-24T10:56:12;100169.06;;;17.36;75.60
18533;BME280;9396;51.510;11.934;2022-09-24T10:59:06;100175.91;;;17.45;76.13
18533;BME280;9396;51.510;11.934;2022-09-24T11:01:43;100170.97;;;17.48;74.43
18533;BME280;9396;51.510;11.934;2022-09-24T11:04:21;100168.88;;;17.44;75.96
18533;BME280;9396;51.510;11.934;2022-09-24T11:07:14;100168.03;;;17.43;77.59
18533;BME280;9396;51.510;11.934;2022-09-24T11:09:47;100161.44;;;17.46;74.96
18533;BME280;9396;51.510;11.934;2022-09-24T11:12:28;100162.25;;;17.40;75.66
18533;BME280;9396;51.510;11.934;2022-09-24T11:15:12;100163.28;;;17.45;75.49
18533;BME280;9396;51.510;11.934;2022-09-24T11:17:55;100168.72;;;17.52;77.34
18533;BME280;9396;51.510;11.934;2022-09-24T11:20:33;100161.06;;;17.49;76.21
18533;BME280;9396;51.510;11.934;2022-09-24T11:23:20;100153.19;;;17.47;74.44
18533;BME280;9396;51.510;11.934;2022-09-24T11:25:55;100155.47;;;17.50;74.00
18533;BME280;9396;51.510;11.934;2022-09-24T11:28:57;100149.47;;;17.48;73.17
18533;BME280;9396;51.510;11.934;2022-09-24T11:31:33;100147.19;;;17.52;72.63
18533;BME280;9396;51.510;11.934;2022-09-24T11:34:10;100153.19;;;17.47;72.89
18533;BME280;9396;51.510;11.934;2022-09-24T11:36:52;100151.56;;;17.53;76.17
18533;BME280;9396;51.510;11.934;2022-09-24T11:39:37;100149.50;;;17.55;75.34
18533;BME280;9396;51.510;11.934;2022-09-24T11:42:12;100138.69;;;17.48;74.57
18533;BME280;9396;51.510;11.934;2022-09-24T11:45:07;100142.44;;;17.47;75.18
18533;BME280;9396;51.510;11.934;2022-09-24T11:47:49;100141.16;;;17.43;73.67
18533;BME280;9396;51.510;11.934;2022-09-24T11:50:25;100138.66;;;17.42;73.58
18533;BME280;9396;51.510;11.934;2022-09-24T11:52:58;100137.47;;;17.51;73.67
18533;BME280;9396;51.510;11.934;2022-09-24T11:55:33;100137.28;;;17.52;74.45
18533;BME280;9396;51.510;11.934;2022-09-24T11:58:09;100140.78;;;17.53;73.72
18533;BME280;9396;51.510;11.934;2022-09-24T12:00:43;100136.22;;;17.47;70.86
18533;BME280;9396;51.510;11.934;2022-09-24T12:03:16;100136.22;;;17.47;71.81
18533;BME280;9396;51.510;11.934;2022-09-24T12:05:47;100135.63;;;17.51;73.96
18533;BME280;9396;51.510;11.934;2022-09-24T12:08:19;100133.56;;;17.53;71.76
18533;BME280;9396;51.510;11.934;2022-09-24T12:10:54;100126.31;;;17.54;72.70
18533;BME280;9396;51.510;11.934;2022-09-24T12:13:26;100127.56;;;17.58;74.08
18533;BME280;9396;51.510;11.934;2022-09-24T12:15:55;100118.03;;;17.62;76.20
18533;BME280;9396;51.510;11.934;2022-09-24T12:18:25;100122.38;;;17.69;75.79
18533;BME280;9396;51.510;11.934;2022-09-24T12:20:56;100117.19;;;17.68;75.64
18533;BME280;9396;51.510;11.934;2022-09-24T12:23:29;100118.25;;;17.73;73.83
18533;BME280;9396;51.510;11.934;2022-09-24T12:26:02;100117.00;;;17.82;74.07
18533;BME280;9396;51.510;11.934;2022-09-24T12:28:37;100119.09;;;17.87;75.91
18533;BME280;9396;51.510;11.934;2022-09-24T12:31:28;100125.50;;;17.86;72.91
18533;BME280;9396;51.510;11.934;2022-09-24T12:34:19;100120.53;;;17.83;72.36
18533;BME280;9396;51.510;11.934;2022-09-24T12:36:56;100118.47;;;17.85;72.92
18533;BME280;9396;51.510;11.934;2022-09-24T12:39:27;100124.25;;;17.88;73.79
18533;BME280;9396;51.510;11.934;2022-09-24T12:42:00;100118.25;;;17.93;74.33
18533;BME280;9396;51.510;11.934;2022-09-24T12:44:33;100115.97;;;17.96;72.36
18533;BME280;9396;51.510;11.934;2022-09-24T12:47:02;100103.75;;;17.94;71.56
18533;BME280;9396;51.510;11.934;2022-09-24T12:49:31;100104.38;;;17.96;70.68
18533;BME280;9396;51.510;11.934;2022-09-24T12:52:02;100102.72;;;17.95;70.70
18533;BME280;9396;51.510;11.934;2022-09-24T12:54:32;100091.75;;;17.90;70.50
18533;BME280;9396;51.510;11.934;2022-09-24T12:57:10;100093.63;;;17.83;71.41
18533;BME280;9396;51.510;11.934;2022-09-24T12:59:46;100091.56;;;17.85;71.95
18533;BME280;9396;51.510;11.934;2022-09-24T13:02:16;100091.75;;;17.83;71.68
18533;BME280;9396;51.510;11.934;2022-09-24T13:04:49;100093.41;;;17.84;71.46
18533;BME280;9396;51.510;11.934;2022-09-24T13:07:30;100090.06;;;17.89;70.31
18533;BME280;9396;51.510;11.934;2022-09-24T13:10:19;100087.78;;;18.12;70.70
18533;BME280;9396;51.510;11.934;2022-09-24T13:12:48;100085.69;;;18.14;71.01